• Join FlightAware (Why Join?)
  • Login
  • US Flag 
08:43AM EST


 

Airport Tracker/Info


-or-


 

Live Flight TrackerFlight Track Log ✈ SRY651 ✈ 20-Apr-2012 ✈ KBED - KTTN

Flight Track Log - Related Links

Times and Time Zones

All times are in EDT time to prevent confusion due to time zone crossing. See the SRY651 flight status page for this flight to view local times or setup timezone preferences in your user account.

Time Position Orientation Groundspeed Altitude Reporting Facility
EDT Latitude Longitude Course Direction KTS MPH feet Rate Location/Type
09:18AM 42.4667 -71.3167 216° Southwest 161 185 900  Level Boston TRACON
09:19AM 42.4333 -71.3500 214° Southwest 175 201 2,000 1,440 Climbing Boston TRACON
09:21AM 42.3811 -71.3972 211° Southwest 201 231 4,200 1,500 Climbing Boston Center
09:22AM 42.3356 -71.4347 210° Southwest 201 231 5,600 1,560 Climbing Boston Center
09:23AM 42.2817 -71.4775 226° Southwest 201 231 7,400 1,620 Climbing Boston Center
09:24AM 42.2486 -71.5231 243° Southwest 201 231 8,900 1,680 Climbing Boston Center
09:25AM 42.2222 -71.5933 229° Southwest 196 226 10,800 1,500 Climbing Boston Center
09:26AM 42.1872 -71.6472 208° Southwest 202 232 12,000 1,080 Climbing Boston Center
09:27AM 42.1394 -71.6814 212° Southwest 207 238 13,000 1,080 Climbing Boston Center
09:28AM 42.0833 -71.7294 214° Southwest 217 250 14,200 1,200 Climbing Boston Center
09:29AM 42.0400 -71.7692 212° Southwest 217 250 15,400 1,200 Climbing Boston Center
09:30AM 41.9861 -71.8144 212° Southwest 217 250 16,700 1,140 Climbing Boston Center
09:31AM 41.9425 -71.8511 212° Southwest 217 250 17,700 840 Climbing Boston Center
09:32AM 41.8886 -71.8964 213° Southwest 217 250 18,400 660 Climbing Boston Center
09:33AM 41.8408 -71.9386 214° Southwest 222 255 19,100 780 Climbing Boston Center
09:34AM 41.7908 -71.9836 212° Southwest 222 255 20,000 780 Climbing Boston Center
09:35AM 41.7369 -72.0283 213° Southwest 222 255 20,700 660 Climbing Boston Center
09:36AM 41.6828 -72.0761 211° Southwest 233 268 21,400 600 Climbing Boston Center
09:37AM 41.6267 -72.1208 214° Southwest 233 268 22,000 300 Climbing Boston Center
09:38AM 41.5706 -72.1708 213° Southwest 233 268 22,000  Level Boston Center
09:39AM 41.5083 -72.2239 212° Southwest 244 281 22,000  Level Boston Center
09:40AM 41.4417 -72.2794 212° Southwest 261 300 22,000  Level Boston Center
09:41AM 41.3792 -72.3322 212° Southwest 261 300 22,000  Level Boston Center
09:42AM 41.3189 -72.3819 211° Southwest 261 300 22,000  Level Boston Center
09:43AM 41.2603 -72.4289 214° Southwest 261 300 22,000  Level Boston Center
09:44AM 41.2019 -72.4814 211° Southwest 261 300 22,000  Level Boston Center
09:45AM 41.1394 -72.5311 212° Southwest 261 300 22,000  Level Boston Center
09:46AM 41.0792 -72.5806 213° Southwest 261 300 22,000  Level Boston Center
09:47AM 41.0186 -72.6328 211° Southwest 261 300 22,000 -540 Level Boston Center
09:48AM 40.9539 -72.6847 212° Southwest 266 306 21,000 -900 Descending Boston Center
09:49AM 40.8869 -72.7394 212° Southwest 272 313 20,300 -720 Descending Boston Center
09:50AM 40.8222 -72.7939 212° Southwest 277 319 19,600 -1,020 Descending Boston Center
09:52AM 40.6756 -72.9164 213° Southwest 274 315 17,200 -1,140 Descending New York Center
09:53AM 40.6164 -72.9667 211° Southwest 286 329 16,100 -660 Descending New York Center
09:54AM 40.5444 -73.0242 212° Southwest 281 323 15,900 -60 Descending New York Center
09:55AM 40.4872 -73.0714 212° Southwest 281 323 16,000  Climbing New York Center
09:56AM 40.4194 -73.1264 211° Southwest 281 323 16,000  Level New York Center
09:57AM 40.3625 -73.1708 214° Southwest 274 315 16,000  Level New York Center
09:58AM 40.2967 -73.2283 212° Southwest 269 310 16,000  Level New York Center
09:59AM 40.2436 -73.2725 210° Southwest 259 298 16,000 -300 Level New York Center
10:00AM 40.1758 -73.3244 213° Southwest 259 298 15,400 -6,120 Descending New York Center
10:01AM 40.1247 -73.3686 226° Southwest 253 291 4,000 -5,820 Descending New York Center
10:02AM 40.0753 -73.4347 267° West 253 291 4,000  Level New York Center
10:03AM 40.0714 -73.5186 257° West 242 278 4,000 1,920 Level New York Center
10:04AM 40.0544 -73.6156 256° West 253 291 8,000 1,980 Climbing New York Center
10:05AM 40.0400 -73.6908 257° West 252 290 8,000  Level New York Center
10:06AM 40.0231 -73.7850 260° West 252 290 8,000  Level New York Center
10:07AM 40.0103 -73.8794 291° West 257 296 8,000  Level New York Center
10:08AM 40.0350 -73.9644 293° West 250 288 8,000  Level New York Center
10:09AM 40.0639 -74.0528 293° West 260 299 8,000  Level New York Center
10:10AM 40.0886 -74.1297 291° West 260 299 8,000  Level New York Center
10:11AM 40.1172 -74.2261 292° West 260 299 8,000  Level New York Center
10:12AM 40.1439 -74.3144 292° West 255 293 8,000  Level New York Center
10:13AM 40.1703 -74.4000 295° West 255 293 8,000 -2,280 Level New York Center
10:14AM 40.1925 -74.4622 287° West 257 296 4,000 -2,820 Descending FAA TRACON SMA TRACON (SMA)
10:14AM 40.2056 -74.5181 279° West 244 281 4,000  Level FAA TRACON SMA TRACON (SMA)
10:15AM 40.2131 -74.5769 279° West 237 273 4,000  Level FAA TRACON SMA TRACON (SMA)
10:16AM 40.2200 -74.6328 297° West 224 258 4,000 -420 Level FAA TRACON SMA TRACON (SMA)
10:16AM 40.2364 -74.6744 304° West 203 234 3,500 -1,020 Descending FAA TRACON SMA TRACON (SMA)
10:17AM 40.2589 -74.7183 326° Northwest 199 229 2,700 -1,380 Descending FAA TRACON SMA TRACON (SMA)
10:18AM 40.2875 -74.7433 308° West 191 220 1,700 -1,140 Descending FAA TRACON SMA TRACON (SMA)
10:18AM 40.3028 -74.7692 236° Southwest 145 167 1,200 -900 Descending FAA TRACON SMA TRACON (SMA)
10:19AM 40.2903 -74.7933 228° Southwest 127 146 500 -600 Descending FAA TRACON SMA TRACON (SMA)
10:20AM 40.2847 -74.8014 360° North 115 132 400 -120 Descending FAA TRACON SMA TRACON (SMA)
10:20AM 40.2847 -74.8014 360° North 115 132 400  Level FAA TRACON SMA TRACON (SMA)